Map

Track Data

SID SEASON NUMBER BASIN SUBBASIN NAME ISO_TIME NATURE LAT LON WMO_WIND WMO_PRES WMO_AGENCY TRACK_TYPE DIST2LAND LANDFALL IFLAG USA_AGENCY USA_ATCF_ID USA_LAT USA_LON USA_RECORD USA_STATUS USA_WIND USA_PRES USA_SSHS USA_R34_NE USA_R34_SE USA_R34_SW USA_R34_NW USA_R50_NE USA_R50_SE USA_R50_SW USA_R50_NW USA_R64_NE USA_R64_SE USA_R64_SW USA_R64_NW USA_POCI USA_ROCI USA_RMW USA_EYE TOKYO_LAT TOKYO_LON TOKYO_GRADE TOKYO_WIND TOKYO_PRES TOKYO_R50_DIR TOKYO_R50_LONG TOKYO_R50_SHORT TOKYO_R30_DIR TOKYO_R30_LONG TOKYO_R30_SHORT TOKYO_LAND CMA_LAT CMA_LON CMA_CAT CMA_WIND CMA_PRES HKO_LAT HKO_LON HKO_CAT HKO_WIND HKO_PRES NEWDELHI_LAT NEWDELHI_LON NEWDELHI_GRADE NEWDELHI_WIND NEWDELHI_PRES NEWDELHI_CI NEWDELHI_DP NEWDELHI_POCI REUNION_LAT REUNION_LON REUNION_TYPE REUNION_WIND REUNION_PRES REUNION_TNUM REUNION_CI REUNION_RMW REUNION_R34_NE REUNION_R34_SE REUNION_R34_SW REUNION_R34_NW REUNION_R50_NE REUNION_R50_SE REUNION_R50_SW REUNION_R50_NW REUNION_R64_NE REUNION_R64_SE REUNION_R64_SW REUNION_R64_NW BOM_LAT BOM_LON BOM_TYPE BOM_WIND BOM_PRES BOM_TNUM BOM_CI BOM_RMW BOM_R34_NE BOM_R34_SE BOM_R34_SW BOM_R34_NW BOM_R50_NE BOM_R50_SE BOM_R50_SW BOM_R50_NW BOM_R64_NE BOM_R64_SE BOM_R64_SW BOM_R64_NW BOM_ROCI BOM_POCI BOM_EYE BOM_POS_METHOD BOM_PRES_METHOD NADI_LAT NADI_LON NADI_CAT NADI_WIND NADI_PRES WELLINGTON_LAT WELLINGTON_LON WELLINGTON_WIND WELLINGTON_PRES DS824_LAT DS824_LON DS824_STAGE DS824_WIND DS824_PRES TD9636_LAT TD9636_LON TD9636_STAGE TD9636_WIND TD9636_PRES TD9635_LAT TD9635_LON TD9635_WIND TD9635_PRES TD9635_ROCI NEUMANN_LAT NEUMANN_LON NEUMANN_CLASS NEUMANN_WIND NEUMANN_PRES MLC_LAT MLC_LON MLC_CLASS MLC_WIND MLC_PRES USA_GUST BOM_GUST BOM_GUST_PER REUNION_GUST REUNION_GUST_PER USA_SEAHGT USA_SEARAD_NE USA_SEARAD_SE USA_SEARAD_SW USA_SEARAD_NW STORM_SPEED STORM_DIR
1922228N14129 1922 43 WP MM NOT_NAMED 1922-08-15 22:00:00 NR 14.3000 129.100 main 455 451 __________O___ -1 14.3000 129.100 4 9 334
1922228N14129 1922 43 WP MM NOT_NAMED 1922-08-16 00:00:00 NR 14.5663 128.965 main 464 455 __________P___ -1 14.5663 128.965 4 9 334
1922228N14129 1922 43 WP MM NOT_NAMED 1922-08-16 03:00:00 NR 14.9597 128.768 main 474 466 __________P___ -1 14.9597 128.768 4 9 335
1922228N14129 1922 43 WP MM NOT_NAMED 1922-08-16 06:00:00 NR 15.3372 128.590 main 478 472 __________P___ -1 15.3372 128.590 4 8 337
1922228N14129 1922 43 WP MM NOT_NAMED 1922-08-16 09:00:00 NR 15.6897 128.441 main 475 475 __________P___ -1 15.6897 128.441 4 8 339
1922228N14129 1922 43 WP MM NOT_NAMED 1922-08-16 10:00:00 NR 15.8000 128.400 main 479 479 __________O___ -1 15.8000 128.400 2 7 342
1922228N14129 1922 43 WP MM NOT_NAMED 1922-08-16 12:00:00 NR 16.0092 128.332 main 480 480 __________P___ -1 16.0092 128.332 2 6 345
1922228N14129 1922 43 WP MM NOT_NAMED 1922-08-16 15:00:00 NR 16.3039 128.256 main 497 488 __________P___ -1 16.3039 128.256 2 6 348
1922228N14129 1922 43 WP MM NOT_NAMED 1922-08-16 18:00:00 NR 16.5925 128.194 main 507 507 __________P___ -1 16.5925 128.194 2 6 348
1922228N14129 1922 43 WP MM NOT_NAMED 1922-08-16 21:00:00 NR 16.8936 128.127 main 519 519 __________P___ -1 16.8936 128.127 2 6 348
1922228N14129 1922 43 WP MM NOT_NAMED 1922-08-16 22:00:00 NR 17.0000 128.100 main 527 527 __________O___ -1 17.0000 128.100 2 7 343
1922228N14129 1922 43 WP MM NOT_NAMED 1922-08-17 00:00:00 NR 17.2408 128.020 main 534 541 __________P___ -1 17.2408 128.020 2 8 342
1922228N14129 1922 43 WP MM NOT_NAMED 1922-08-17 03:00:00 NR 17.6210 127.888 main 557 557 __________P___ -1 17.6210 127.888 2 8 342
1922228N14129 1922 43 WP MM NOT_NAMED 1922-08-17 06:00:00 NR 18.0075 127.754 main 573 559 __________P___ -1 18.0075 127.754 2 8 343
1922228N14129 1922 43 WP MM NOT_NAMED 1922-08-17 09:00:00 NR 18.3814 127.634 main 559 559 __________P___ -1 18.3814 127.634 2 8 343
1922228N14129 1922 43 WP MM NOT_NAMED 1922-08-17 10:00:00 NR 18.5000 127.600 main 559 549 __________O___ -1 18.5000 127.600 2 7 345
1922228N14129 1922 43 WP MM NOT_NAMED 1922-08-17 12:00:00 NR 18.7014 127.544 main 549 549 __________P___ -1 18.7014 127.544 2 6 347
1922228N14129 1922 43 WP MM NOT_NAMED 1922-08-17 15:00:00 NR 18.9842 127.479 main 551 544 __________P___ -1 18.9842 127.479 2 6 349
1922228N14129 1922 43 WP MM NOT_NAMED 1922-08-17 18:00:00 NR 19.2689 127.434 main 546 546 __________P___ -1 19.2689 127.434 2 6 353
1922228N14129 1922 43 WP MM NOT_NAMED 1922-08-17 21:00:00 NR 19.5836 127.406 main 552 552 __________P___ -1 19.5836 127.406 2 7 354
1922228N14129 1922 43 WP MM NOT_NAMED 1922-08-17 22:00:00 NR 19.7000 127.400 main 555 555 __________O___ -1 19.7000 127.400 2 8 356
1922228N14129 1922 43 WP MM NOT_NAMED 1922-08-18 00:00:00 NR 19.9579 127.381 main 564 564 __________P___ -1 19.9579 127.381 2 8 358
1922228N14129 1922 43 WP MM NOT_NAMED 1922-08-18 03:00:00 NR 20.3824 127.364 main 579 579 __________P___ -1 20.3824 127.364 2 9 0
1922228N14129 1922 43 WP MM NOT_NAMED 1922-08-18 06:00:00 NR 20.8437 127.366 main 597 602 __________P___ -1 20.8437 127.366 2 10 1
1922228N14129 1922 43 WP MM NOT_NAMED 1922-08-18 09:00:00 NR 21.3326 127.388 main 624 629 __________P___ -1 21.3326 127.388 2 10 3
1922228N14129 1922 43 WP MM NOT_NAMED 1922-08-18 10:00:00 NR 21.5000 127.400 main 635 635 __________O___ -1 21.5000 127.400 2 10 10
1922228N14129 1922 43 WP MM NOT_NAMED 1922-08-18 12:00:00 NR 21.8197 127.476 main 643 631 __________P___ -1 21.8197 127.476 2 10 13
1922228N14129 1922 43 WP MM NOT_NAMED 1922-08-18 15:00:00 NR 22.3179 127.610 main 631 620 __________P___ -1 22.3179 127.610 2 11 12
1922228N14129 1922 43 WP MM NOT_NAMED 1922-08-18 18:00:00 NR 22.8439 127.714 main 620 601 __________P___ -1 22.8439 127.714 2 11 5
1922228N14129 1922 43 WP MM NOT_NAMED 1922-08-18 21:00:00 NR 23.4044 127.727 main 601 597 __________P___ -1 23.4044 127.727 2 11 0
1922228N14129 1922 43 WP MM NOT_NAMED 1922-08-18 22:00:00 NR 23.6000 127.700 main 597 577 __________O___ -1 23.6000 127.700 2 13 351
1922228N14129 1922 43 WP MM NOT_NAMED 1922-08-19 00:00:00 NR 24.0303 127.609 main 577 545 __________P___ -1 24.0303 127.609 2 14 345
1922228N14129 1922 43 WP MM NOT_NAMED 1922-08-19 03:00:00 NR 24.7079 127.365 main 545 503 __________P___ -1 24.7079 127.365 2 15 338
1922228N14129 1922 43 WP MM NOT_NAMED 1922-08-19 06:00:00 NR 25.3833 126.994 main 504 464 __________P___ -1 25.3833 126.994 2 15 329
1922228N14129 1922 43 WP MM NOT_NAMED 1922-08-19 09:00:00 NR 26.0100 126.494 main 464 451 __________P___ -1 26.0100 126.494 2 15 323
1922228N14129 1922 43 WP MM NOT_NAMED 1922-08-19 10:00:00 NR 26.2000 126.300 main 451 424 __________O___ -1 26.2000 126.300 2 16 314
1922228N14129 1922 43 WP MM NOT_NAMED 1922-08-19 12:00:00 NR 26.5450 125.871 main 424 373 __________P___ -1 26.5450 125.871 2 16 307
1922228N14129 1922 43 WP MM NOT_NAMED 1922-08-19 15:00:00 NR 26.9869 125.142 main 373 283 __________P___ -1 26.9869 125.142 2 16 301
1922228N14129 1922 43 WP MM NOT_NAMED 1922-08-19 18:00:00 NR 27.3610 124.337 main 283 198 __________P___ -1 27.3610 124.337 2 16 296
1922228N14129 1922 43 WP MM NOT_NAMED 1922-08-19 21:00:00 NR 27.6937 123.488 main 198 166 __________P___ -1 27.6937 123.488 2 16 294
1922228N14129 1922 43 WP MM NOT_NAMED 1922-08-19 22:00:00 NR 27.8000 123.200 main 166 __________O___ -1 27.8000 123.200 7 17 293

Digital Typhoon Data and Search

About IBTrACS Database

This database is a web-friendly format of International Best Track Archive for Climate Stewardship (IBTrACS), a global best track data archive curated by NOAA dating back to 1842.

Updated: 2021-10-25